sensor_id;sensor_type;location;lat;lon;timestamp;temperature;humidity
2539;DHT22;1280;49.760;9.664;2022-07-23T00:02:12;24.50;66.80
2539;DHT22;1280;49.760;9.664;2022-07-23T00:04:42;24.50;66.70
2539;DHT22;1280;49.760;9.664;2022-07-23T00:07:10;24.50;66.70
2539;DHT22;1280;49.760;9.664;2022-07-23T00:09:38;24.50;66.60
2539;DHT22;1280;49.760;9.664;2022-07-23T00:12:06;24.40;66.60
2539;DHT22;1280;49.760;9.664;2022-07-23T00:14:34;24.30;66.70
2539;DHT22;1280;49.760;9.664;2022-07-23T00:17:02;24.30;66.70
2539;DHT22;1280;49.760;9.664;2022-07-23T00:19:30;24.20;66.70
2539;DHT22;1280;49.760;9.664;2022-07-23T00:22:00;24.20;66.90
2539;DHT22;1280;49.760;9.664;2022-07-23T00:24:28;24.20;66.90
2539;DHT22;1280;49.760;9.664;2022-07-23T00:26:56;24.30;66.90
2539;DHT22;1280;49.760;9.664;2022-07-23T00:29:24;24.30;66.90
2539;DHT22;1280;49.760;9.664;2022-07-23T00:31:52;24.30;66.80
2539;DHT22;1280;49.760;9.664;2022-07-23T00:34:20;24.30;66.80
2539;DHT22;1280;49.760;9.664;2022-07-23T00:36:48;24.30;66.80
2539;DHT22;1280;49.760;9.664;2022-07-23T00:39:17;24.30;66.70
2539;DHT22;1280;49.760;9.664;2022-07-23T00:41:45;24.20;66.60
2539;DHT22;1280;49.760;9.664;2022-07-23T00:44:17;24.20;66.60
2539;DHT22;1280;49.760;9.664;2022-07-23T00:46:48;24.10;66.50
2539;DHT22;1280;49.760;9.664;2022-07-23T00:49:16;24.00;66.60
2539;DHT22;1280;49.760;9.664;2022-07-23T00:51:44;24.00;66.80
2539;DHT22;1280;49.760;9.664;2022-07-23T00:54:12;24.00;66.90
2539;DHT22;1280;49.760;9.664;2022-07-23T00:56:43;24.00;67.00
2539;DHT22;1280;49.760;9.664;2022-07-23T00:59:12;24.00;67.00
2539;DHT22;1280;49.760;9.664;2022-07-23T01:01:41;24.00;67.00
2539;DHT22;1280;49.760;9.664;2022-07-23T01:04:10;23.90;67.10
2539;DHT22;1280;49.760;9.664;2022-07-23T01:06:38;23.90;67.00
2539;DHT22;1280;49.760;9.664;2022-07-23T01:09:07;23.90;67.30
2539;DHT22;1280;49.760;9.664;2022-07-23T01:11:36;23.90;67.30
2539;DHT22;1280;49.760;9.664;2022-07-23T01:14:11;23.90;67.30
2539;DHT22;1280;49.760;9.664;2022-07-23T01:16:40;23.80;67.50
2539;DHT22;1280;49.760;9.664;2022-07-23T01:19:09;23.80;67.60
2539;DHT22;1280;49.760;9.664;2022-07-23T01:21:38;23.70;67.70
2539;DHT22;1280;49.760;9.664;2022-07-23T01:24:08;23.70;68.00
2539;DHT22;1280;49.760;9.664;2022-07-23T01:26:43;23.70;68.00
2539;DHT22;1280;49.760;9.664;2022-07-23T01:29:12;23.70;68.10
2539;DHT22;1280;49.760;9.664;2022-07-23T01:31:41;23.70;68.20
2539;DHT22;1280;49.760;9.664;2022-07-23T01:34:11;23.70;68.40
2539;DHT22;1280;49.760;9.664;2022-07-23T01:36:39;23.70;68.30
2539;DHT22;1280;49.760;9.664;2022-07-23T01:39:10;23.60;68.40
2539;DHT22;1280;49.760;9.664;2022-07-23T01:41:38;23.60;68.60
2539;DHT22;1280;49.760;9.664;2022-07-23T01:44:09;23.60;68.70
2539;DHT22;1280;49.760;9.664;2022-07-23T01:46:39;23.60;68.80
2539;DHT22;1280;49.760;9.664;2022-07-23T01:49:07;23.70;68.90
2539;DHT22;1280;49.760;9.664;2022-07-23T01:51:55;23.70;68.90
2539;DHT22;1280;49.760;9.664;2022-07-23T01:54:43;23.70;68.90
2539;DHT22;1280;49.760;9.664;2022-07-23T01:57:11;23.80;69.00
2539;DHT22;1280;49.760;9.664;2022-07-23T01:59:39;23.80;69.00
2539;DHT22;1280;49.760;9.664;2022-07-23T02:02:09;23.80;69.10
2539;DHT22;1280;49.760;9.664;2022-07-23T02:04:37;23.80;69.20
2539;DHT22;1280;49.760;9.664;2022-07-23T02:07:05;23.80;69.20
2539;DHT22;1280;49.760;9.664;2022-07-23T02:09:34;23.80;69.30
2539;DHT22;1280;49.760;9.664;2022-07-23T02:12:04;23.70;69.40
2539;DHT22;1280;49.760;9.664;2022-07-23T02:14:32;23.70;69.50
2539;DHT22;1280;49.760;9.664;2022-07-23T02:17:01;23.70;69.60
2539;DHT22;1280;49.760;9.664;2022-07-23T02:19:29;23.70;69.70
2539;DHT22;1280;49.760;9.664;2022-07-23T02:21:57;23.70;69.80
2539;DHT22;1280;49.760;9.664;2022-07-23T02:24:25;23.70;69.80
2539;DHT22;1280;49.760;9.664;2022-07-23T02:26:54;23.70;69.70
2539;DHT22;1280;49.760;9.664;2022-07-23T02:29:23;23.70;69.70
2539;DHT22;1280;49.760;9.664;2022-07-23T02:31:53;23.60;69.70
2539;DHT22;1280;49.760;9.664;2022-07-23T02:34:22;23.60;69.80
2539;DHT22;1280;49.760;9.664;2022-07-23T02:36:51;23.60;69.90
2539;DHT22;1280;49.760;9.664;2022-07-23T02:39:20;23.60;69.90
2539;DHT22;1280;49.760;9.664;2022-07-23T02:41:48;23.60;69.80
2539;DHT22;1280;49.760;9.664;2022-07-23T02:44:17;23.50;69.80
2539;DHT22;1280;49.760;9.664;2022-07-23T02:46:50;23.50;69.90
2539;DHT22;1280;49.760;9.664;2022-07-23T02:49:18;23.40;70.00
2539;DHT22;1280;49.760;9.664;2022-07-23T02:51:48;23.40;70.10
2539;DHT22;1280;49.760;9.664;2022-07-23T02:54:16;23.40;70.20
2539;DHT22;1280;49.760;9.664;2022-07-23T02:56:44;23.40;70.30
2539;DHT22;1280;49.760;9.664;2022-07-23T02:59:12;23.40;70.40
2539;DHT22;1280;49.760;9.664;2022-07-23T03:01:40;23.40;70.50
2539;DHT22;1280;49.760;9.664;2022-07-23T03:04:10;23.40;70.50
2539;DHT22;1280;49.760;9.664;2022-07-23T03:06:38;23.40;70.60
2539;DHT22;1280;49.760;9.664;2022-07-23T03:09:06;23.40;70.60
2539;DHT22;1280;49.760;9.664;2022-07-23T03:11:34;23.40;70.70
2539;DHT22;1280;49.760;9.664;2022-07-23T03:14:02;23.40;70.80
2539;DHT22;1280;49.760;9.664;2022-07-23T03:16:30;23.40;70.80
2539;DHT22;1280;49.760;9.664;2022-07-23T03:18:58;23.40;70.90
2539;DHT22;1280;49.760;9.664;2022-07-23T03:21:33;23.40;70.90
2539;DHT22;1280;49.760;9.664;2022-07-23T03:24:06;23.30;71.00
2539;DHT22;1280;49.760;9.664;2022-07-23T03:26:34;23.30;71.10
2539;DHT22;1280;49.760;9.664;2022-07-23T03:29:02;23.30;71.10
2539;DHT22;1280;49.760;9.664;2022-07-23T03:31:31;23.30;71.20
2539;DHT22;1280;49.760;9.664;2022-07-23T03:33:59;23.20;71.30
2539;DHT22;1280;49.760;9.664;2022-07-23T03:36:28;23.20;71.40
2539;DHT22;1280;49.760;9.664;2022-07-23T03:38:57;23.20;71.40
2539;DHT22;1280;49.760;9.664;2022-07-23T03:41:28;23.20;71.60
2539;DHT22;1280;49.760;9.664;2022-07-23T03:43:56;23.20;71.70
2539;DHT22;1280;49.760;9.664;2022-07-23T03:46:25;23.20;71.80
2539;DHT22;1280;49.760;9.664;2022-07-23T03:48:54;23.20;71.80
2539;DHT22;1280;49.760;9.664;2022-07-23T03:51:25;23.20;71.90
2539;DHT22;1280;49.760;9.664;2022-07-23T03:53:53;23.20;71.90
2539;DHT22;1280;49.760;9.664;2022-07-23T03:56:23;23.20;71.90
2539;DHT22;1280;49.760;9.664;2022-07-23T03:58:52;23.20;72.00
2539;DHT22;1280;49.760;9.664;2022-07-23T04:01:20;23.20;72.10
2539;DHT22;1280;49.760;9.664;2022-07-23T04:03:48;23.20;72.20
2539;DHT22;1280;49.760;9.664;2022-07-23T04:06:16;23.30;72.30
2539;DHT22;1280;49.760;9.664;2022-07-23T04:08:45;23.20;72.30
2539;DHT22;1280;49.760;9.664;2022-07-23T04:11:13;23.20;72.50
2539;DHT22;1280;49.760;9.664;2022-07-23T04:13:43;23.20;72.70
2539;DHT22;1280;49.760;9.664;2022-07-23T04:16:12;23.20;72.80
2539;DHT22;1280;49.760;9.664;2022-07-23T04:18:40;23.20;72.90
2539;DHT22;1280;49.760;9.664;2022-07-23T04:21:15;23.20;72.90
2539;DHT22;1280;49.760;9.664;2022-07-23T04:23:45;23.20;73.00
2539;DHT22;1280;49.760;9.664;2022-07-23T04:26:13;23.20;73.10
2539;DHT22;1280;49.760;9.664;2022-07-23T04:28:47;23.30;73.10
2539;DHT22;1280;49.760;9.664;2022-07-23T04:31:15;23.20;73.00
2539;DHT22;1280;49.760;9.664;2022-07-23T04:33:44;23.20;73.00
2539;DHT22;1280;49.760;9.664;2022-07-23T04:36:12;23.20;73.00
2539;DHT22;1280;49.760;9.664;2022-07-23T04:38:40;23.20;73.10
2539;DHT22;1280;49.760;9.664;2022-07-23T04:41:08;23.20;73.20
2539;DHT22;1280;49.760;9.664;2022-07-23T04:43:37;23.20;73.20
2539;DHT22;1280;49.760;9.664;2022-07-23T04:46:07;23.20;73.30
2539;DHT22;1280;49.760;9.664;2022-07-23T04:48:42;23.20;73.40
2539;DHT22;1280;49.760;9.664;2022-07-23T04:51:10;23.20;73.60
2539;DHT22;1280;49.760;9.664;2022-07-23T04:53:39;23.30;73.80
2539;DHT22;1280;49.760;9.664;2022-07-23T04:56:07;23.40;74.00
2539;DHT22;1280;49.760;9.664;2022-07-23T04:58:35;23.50;74.00
2539;DHT22;1280;49.760;9.664;2022-07-23T05:01:03;23.70;74.00
2539;DHT22;1280;49.760;9.664;2022-07-23T05:03:35;23.80;73.90
2539;DHT22;1280;49.760;9.664;2022-07-23T05:06:03;23.90;73.70
2539;DHT22;1280;49.760;9.664;2022-07-23T05:08:32;23.90;73.70
2539;DHT22;1280;49.760;9.664;2022-07-23T05:11:00;23.90;73.50
2539;DHT22;1280;49.760;9.664;2022-07-23T05:13:28;23.90;73.50
2539;DHT22;1280;49.760;9.664;2022-07-23T05:15:57;23.90;73.40
2539;DHT22;1280;49.760;9.664;2022-07-23T05:18:26;23.80;73.30
2539;DHT22;1280;49.760;9.664;2022-07-23T05:20:55;23.80;73.30
2539;DHT22;1280;49.760;9.664;2022-07-23T05:23:23;23.70;73.30
2539;DHT22;1280;49.760;9.664;2022-07-23T05:25:52;23.70;73.60
2539;DHT22;1280;49.760;9.664;2022-07-23T05:28:20;23.60;73.50
2539;DHT22;1280;49.760;9.664;2022-07-23T05:30:50;23.60;73.60
2539;DHT22;1280;49.760;9.664;2022-07-23T05:33:19;23.50;73.70
2539;DHT22;1280;49.760;9.664;2022-07-23T05:35:47;23.50;73.80
2539;DHT22;1280;49.760;9.664;2022-07-23T05:38:23;23.40;73.80
2539;DHT22;1280;49.760;9.664;2022-07-23T05:40:52;23.40;73.90
2539;DHT22;1280;49.760;9.664;2022-07-23T05:43:20;23.30;73.90
2539;DHT22;1280;49.760;9.664;2022-07-23T05:45:48;23.20;73.90
2539;DHT22;1280;49.760;9.664;2022-07-23T05:48:16;23.20;74.00
2539;DHT22;1280;49.760;9.664;2022-07-23T05:50:57;23.10;74.10
2539;DHT22;1280;49.760;9.664;2022-07-23T05:53:32;23.10;74.20
2539;DHT22;1280;49.760;9.664;2022-07-23T05:56:04;23.10;74.20
2539;DHT22;1280;49.760;9.664;2022-07-23T05:58:32;23.10;74.20
2539;DHT22;1280;49.760;9.664;2022-07-23T06:01:01;23.10;74.20
2539;DHT22;1280;49.760;9.664;2022-07-23T06:03:35;23.10;74.30
2539;DHT22;1280;49.760;9.664;2022-07-23T06:06:04;23.10;74.40
2539;DHT22;1280;49.760;9.664;2022-07-23T06:08:33;23.10;74.20
2539;DHT22;1280;49.760;9.664;2022-07-23T06:11:02;23.20;74.20
2539;DHT22;1280;49.760;9.664;2022-07-23T06:13:30;23.10;74.20
2539;DHT22;1280;49.760;9.664;2022-07-23T06:15:58;23.20;74.20
2539;DHT22;1280;49.760;9.664;2022-07-23T06:18:27;23.20;74.20
2539;DHT22;1280;49.760;9.664;2022-07-23T06:20:54;23.20;74.10
2539;DHT22;1280;49.760;9.664;2022-07-23T06:23:26;23.20;74.10
2539;DHT22;1280;49.760;9.664;2022-07-23T06:25:55;23.20;74.00
2539;DHT22;1280;49.760;9.664;2022-07-23T06:28:23;23.20;74.00
2539;DHT22;1280;49.760;9.664;2022-07-23T06:30:51;23.20;74.00
2539;DHT22;1280;49.760;9.664;2022-07-23T06:33:22;23.10;74.10
2539;DHT22;1280;49.760;9.664;2022-07-23T06:35:50;23.10;74.30
2539;DHT22;1280;49.760;9.664;2022-07-23T06:38:20;23.20;74.30
2539;DHT22;1280;49.760;9.664;2022-07-23T06:40:48;23.20;74.40
2539;DHT22;1280;49.760;9.664;2022-07-23T06:43:17;23.20;74.40
2539;DHT22;1280;49.760;9.664;2022-07-23T06:45:45;23.10;74.60
2539;DHT22;1280;49.760;9.664;2022-07-23T06:48:13;23.20;74.60
2539;DHT22;1280;49.760;9.664;2022-07-23T06:50:41;23.20;74.70
2539;DHT22;1280;49.760;9.664;2022-07-23T06:53:09;23.10;74.80
2539;DHT22;1280;49.760;9.664;2022-07-23T06:55:40;23.10;74.80
2539;DHT22;1280;49.760;9.664;2022-07-23T06:58:09;23.10;74.90
2539;DHT22;1280;49.760;9.664;2022-07-23T07:00:39;23.10;75.00
2539;DHT22;1280;49.760;9.664;2022-07-23T07:03:07;23.10;75.10
2539;DHT22;1280;49.760;9.664;2022-07-23T07:05:35;23.10;75.20
2539;DHT22;1280;49.760;9.664;2022-07-23T07:08:03;23.20;75.10
2539;DHT22;1280;49.760;9.664;2022-07-23T07:10:31;23.20;75.10
2539;DHT22;1280;49.760;9.664;2022-07-23T07:12:59;23.20;75.20
2539;DHT22;1280;49.760;9.664;2022-07-23T07:15:27;23.20;75.20
2539;DHT22;1280;49.760;9.664;2022-07-23T07:17:56;23.20;75.20
2539;DHT22;1280;49.760;9.664;2022-07-23T07:20:25;23.20;75.30
2539;DHT22;1280;49.760;9.664;2022-07-23T07:22:52;23.20;75.40
2539;DHT22;1280;49.760;9.664;2022-07-23T07:25:20;23.20;75.50
2539;DHT22;1280;49.760;9.664;2022-07-23T07:27:48;23.20;75.60
2539;DHT22;1280;49.760;9.664;2022-07-23T07:30:17;23.20;75.70
2539;DHT22;1280;49.760;9.664;2022-07-23T07:32:45;23.30;75.70
2539;DHT22;1280;49.760;9.664;2022-07-23T07:35:24;23.30;75.80
2539;DHT22;1280;49.760;9.664;2022-07-23T07:37:52;23.30;75.70
2539;DHT22;1280;49.760;9.664;2022-07-23T07:40:20;23.30;75.80
2539;DHT22;1280;49.760;9.664;2022-07-23T07:42:50;23.40;76.00
2539;DHT22;1280;49.760;9.664;2022-07-23T07:45:20;23.40;76.10
2539;DHT22;1280;49.760;9.664;2022-07-23T07:47:48;23.50;76.00
2539;DHT22;1280;49.760;9.664;2022-07-23T07:50:16;23.50;76.00
2539;DHT22;1280;49.760;9.664;2022-07-23T07:52:46;23.60;76.00
2539;DHT22;1280;49.760;9.664;2022-07-23T07:55:15;23.60;76.00
2539;DHT22;1280;49.760;9.664;2022-07-23T07:57:43;23.70;76.00
2539;DHT22;1280;49.760;9.664;2022-07-23T08:00:16;23.70;75.90
2539;DHT22;1280;49.760;9.664;2022-07-23T08:02:47;23.80;75.80
2539;DHT22;1280;49.760;9.664;2022-07-23T08:05:19;23.80;75.70
2539;DHT22;1280;49.760;9.664;2022-07-23T08:07:54;23.80;75.70
2539;DHT22;1280;49.760;9.664;2022-07-23T08:10:22;23.80;75.70
2539;DHT22;1280;49.760;9.664;2022-07-23T08:12:52;23.80;75.60
2539;DHT22;1280;49.760;9.664;2022-07-23T08:15:22;23.80;75.60
2539;DHT22;1280;49.760;9.664;2022-07-23T08:17:50;23.90;75.50
2539;DHT22;1280;49.760;9.664;2022-07-23T08:20:20;23.90;75.40
2539;DHT22;1280;49.760;9.664;2022-07-23T08:22:51;23.90;75.40
2539;DHT22;1280;49.760;9.664;2022-07-23T08:25:22;23.90;75.30
2539;DHT22;1280;49.760;9.664;2022-07-23T08:27:51;24.00;75.20
2539;DHT22;1280;49.760;9.664;2022-07-23T08:30:19;23.90;75.00
2539;DHT22;1280;49.760;9.664;2022-07-23T08:32:52;23.90;75.00
2539;DHT22;1280;49.760;9.664;2022-07-23T08:35:27;23.90;75.00
2539;DHT22;1280;49.760;9.664;2022-07-23T08:37:56;24.00;75.00
2539;DHT22;1280;49.760;9.664;2022-07-23T08:40:27;24.00;74.90
2539;DHT22;1280;49.760;9.664;2022-07-23T08:42:55;24.00;74.90
2539;DHT22;1280;49.760;9.664;2022-07-23T08:45:24;24.00;74.90
2539;DHT22;1280;49.760;9.664;2022-07-23T08:47:54;24.10;74.80
2539;DHT22;1280;49.760;9.664;2022-07-23T08:50:23;24.10;74.70
2539;DHT22;1280;49.760;9.664;2022-07-23T08:52:53;24.10;74.70
2539;DHT22;1280;49.760;9.664;2022-07-23T08:55:22;24.10;74.70
2539;DHT22;1280;49.760;9.664;2022-07-23T08:57:52;24.20;74.70
2539;DHT22;1280;49.760;9.664;2022-07-23T09:00:21;24.20;74.60
2539;DHT22;1280;49.760;9.664;2022-07-23T09:02:50;24.30;74.50
2539;DHT22;1280;49.760;9.664;2022-07-23T09:05:19;24.30;74.40
2539;DHT22;1280;49.760;9.664;2022-07-23T09:08:08;24.30;74.30
2539;DHT22;1280;49.760;9.664;2022-07-23T09:10:52;24.30;74.40
2539;DHT22;1280;49.760;9.664;2022-07-23T09:13:30;24.30;74.30
2539;DHT22;1280;49.760;9.664;2022-07-23T09:15:59;24.40;74.20
2539;DHT22;1280;49.760;9.664;2022-07-23T09:18:29;24.40;74.00
2539;DHT22;1280;49.760;9.664;2022-07-23T09:21:14;24.40;74.00
2539;DHT22;1280;49.760;9.664;2022-07-23T09:23:45;24.40;73.90
2539;DHT22;1280;49.760;9.664;2022-07-23T09:26:33;24.30;73.80
2539;DHT22;1280;49.760;9.664;2022-07-23T09:29:08;24.40;73.90
2539;DHT22;1280;49.760;9.664;2022-07-23T09:31:46;24.40;74.00
2539;DHT22;1280;49.760;9.664;2022-07-23T09:34:18;24.50;73.90
2539;DHT22;1280;49.760;9.664;2022-07-23T09:36:46;24.50;73.80
2539;DHT22;1280;49.760;9.664;2022-07-23T09:39:24;24.60;73.80
2539;DHT22;1280;49.760;9.664;2022-07-23T09:41:53;24.60;73.90
2539;DHT22;1280;49.760;9.664;2022-07-23T09:44:22;24.70;73.90
2539;DHT22;1280;49.760;9.664;2022-07-23T09:46:58;24.70;73.80
2539;DHT22;1280;49.760;9.664;2022-07-23T09:49:27;24.80;73.70
2539;DHT22;1280;49.760;9.664;2022-07-23T09:51:58;24.80;73.60
2539;DHT22;1280;49.760;9.664;2022-07-23T09:54:28;24.90;73.40
2539;DHT22;1280;49.760;9.664;2022-07-23T09:56:58;25.00;72.90
2539;DHT22;1280;49.760;9.664;2022-07-23T09:59:30;25.00;72.80
2539;DHT22;1280;49.760;9.664;2022-07-23T10:02:00;25.00;72.70
2539;DHT22;1280;49.760;9.664;2022-07-23T10:04:34;25.10;72.60
2539;DHT22;1280;49.760;9.664;2022-07-23T10:07:17;25.10;72.60
2539;DHT22;1280;49.760;9.664;2022-07-23T10:10:20;25.20;72.50
2539;DHT22;1280;49.760;9.664;2022-07-23T10:13:16;25.20;72.30
2539;DHT22;1280;49.760;9.664;2022-07-23T10:16:05;25.30;72.00
2539;DHT22;1280;49.760;9.664;2022-07-23T10:18:35;25.30;71.30
2539;DHT22;1280;49.760;9.664;2022-07-23T10:21:11;25.20;71.20
2539;DHT22;1280;49.760;9.664;2022-07-23T10:23:47;25.20;71.30
2539;DHT22;1280;49.760;9.664;2022-07-23T10:26:24;25.20;71.10
2539;DHT22;1280;49.760;9.664;2022-07-23T10:29:10;25.30;71.00
2539;DHT22;1280;49.760;9.664;2022-07-23T10:31:50;25.30;71.00
2539;DHT22;1280;49.760;9.664;2022-07-23T10:34:38;25.40;70.80
2539;DHT22;1280;49.760;9.664;2022-07-23T10:37:12;25.40;70.70
2539;DHT22;1280;49.760;9.664;2022-07-23T10:39:47;25.50;70.50
2539;DHT22;1280;49.760;9.664;2022-07-23T10:42:17;25.60;70.00
2539;DHT22;1280;49.760;9.664;2022-07-23T10:44:46;25.70;70.00
2539;DHT22;1280;49.760;9.664;2022-07-23T10:47:27;25.70;69.80
2539;DHT22;1280;49.760;9.664;2022-07-23T10:50:23;25.80;69.70
2539;DHT22;1280;49.760;9.664;2022-07-23T10:53:16;25.80;69.50
2539;DHT22;1280;49.760;9.664;2022-07-23T10:55:50;25.90;69.20
2539;DHT22;1280;49.760;9.664;2022-07-23T10:58:45;25.90;69.00
2539;DHT22;1280;49.760;9.664;2022-07-23T11:01:31;26.00;68.90
2539;DHT22;1280;49.760;9.664;2022-07-23T11:04:01;26.00;68.80
2539;DHT22;1280;49.760;9.664;2022-07-23T11:07:07;26.00;68.70
2539;DHT22;1280;49.760;9.664;2022-07-23T11:09:40;26.10;68.50
2539;DHT22;1280;49.760;9.664;2022-07-23T11:12:33;26.10;68.60
2539;DHT22;1280;49.760;9.664;2022-07-23T11:15:05;26.20;68.50
2539;DHT22;1280;49.760;9.664;2022-07-23T11:17:36;26.20;68.50
2539;DHT22;1280;49.760;9.664;2022-07-23T11:20:31;26.30;68.50
2539;DHT22;1280;49.760;9.664;2022-07-23T11:22:59;26.40;68.30
2539;DHT22;1280;49.760;9.664;2022-07-23T11:25:32;26.40;68.10
2539;DHT22;1280;49.760;9.664;2022-07-23T11:28:17;26.40;68.10
2539;DHT22;1280;49.760;9.664;2022-07-23T11:30:47;26.50;68.00
2539;DHT22;1280;49.760;9.664;2022-07-23T11:33:18;26.60;68.00
2539;DHT22;1280;49.760;9.664;2022-07-23T11:35:49;26.70;67.70
2539;DHT22;1280;49.760;9.664;2022-07-23T11:38:19;26.70;67.50
2539;DHT22;1280;49.760;9.664;2022-07-23T11:40:48;26.80;67.30
2539;DHT22;1280;49.760;9.664;2022-07-23T11:43:17;26.80;67.20
2539;DHT22;1280;49.760;9.664;2022-07-23T11:45:47;26.90;66.90
2539;DHT22;1280;49.760;9.664;2022-07-23T11:48:18;27.00;66.20
2539;DHT22;1280;49.760;9.664;2022-07-23T11:50:48;27.10;66.00
2539;DHT22;1280;49.760;9.664;2022-07-23T11:53:28;27.10;65.70
2539;DHT22;1280;49.760;9.664;2022-07-23T11:56:03;27.10;65.60
2539;DHT22;1280;49.760;9.664;2022-07-23T11:58:31;27.10;65.30
2539;DHT22;1280;49.760;9.664;2022-07-23T12:00:59;27.10;64.60
2539;DHT22;1280;49.760;9.664;2022-07-23T12:03:28;27.10;64.90
2539;DHT22;1280;49.760;9.664;2022-07-23T12:05:58;27.10;65.00
2539;DHT22;1280;49.760;9.664;2022-07-23T12:08:26;27.20;64.80
2539;DHT22;1280;49.760;9.664;2022-07-23T12:10:54;27.20;64.80
2539;DHT22;1280;49.760;9.664;2022-07-23T12:13:22;27.20;64.70
2539;DHT22;1280;49.760;9.664;2022-07-23T12:15:52;27.30;64.60
2539;DHT22;1280;49.760;9.664;2022-07-23T12:18:21;27.40;64.10
2539;DHT22;1280;49.760;9.664;2022-07-23T12:20:51;27.40;64.00
2539;DHT22;1280;49.760;9.664;2022-07-23T12:23:23;27.30;63.80
2539;DHT22;1280;49.760;9.664;2022-07-23T12:25:52;27.30;63.70
2539;DHT22;1280;49.760;9.664;2022-07-23T12:28:22;27.20;63.40
2539;DHT22;1280;49.760;9.664;2022-07-23T12:30:56;27.20;63.60
2539;DHT22;1280;49.760;9.664;2022-07-23T12:33:26;27.20;63.60
2539;DHT22;1280;49.760;9.664;2022-07-23T12:35:55;27.20;63.50
2539;DHT22;1280;49.760;9.664;2022-07-23T12:38:27;27.20;63.20
2539;DHT22;1280;49.760;9.664;2022-07-23T12:40:56;27.20;62.90
2539;DHT22;1280;49.760;9.664;2022-07-23T12:43:26;27.30;62.80
2539;DHT22;1280;49.760;9.664;2022-07-23T12:52:33;27.60;62.20
2539;DHT22;1280;49.760;9.664;2022-07-23T12:55:03;27.60;62.00
2539;DHT22;1280;49.760;9.664;2022-07-23T12:57:50;27.70;62.00
2539;DHT22;1280;49.760;9.664;2022-07-23T13:03:37;27.80;61.80
2539;DHT22;1280;49.760;9.664;2022-07-23T13:06:07;27.90;61.60
2539;DHT22;1280;49.760;9.664;2022-07-23T13:08:37;28.00;61.30
2539;DHT22;1280;49.760;9.664;2022-07-23T13:11:07;28.00;60.90
2539;DHT22;1280;49.760;9.664;2022-07-23T13:13:35;28.00;60.40
2539;DHT22;1280;49.760;9.664;2022-07-23T13:16:04;27.90;60.60
2539;DHT22;1280;49.760;9.664;2022-07-23T13:18:37;27.90;60.40
2539;DHT22;1280;49.760;9.664;2022-07-23T13:24:53;28.00;60.40
2539;DHT22;1280;49.760;9.664;2022-07-23T13:27:22;28.10;60.30
2539;DHT22;1280;49.760;9.664;2022-07-23T13:29:50;28.20;60.10
2539;DHT22;1280;49.760;9.664;2022-07-23T13:32:19;28.20;60.00
2539;DHT22;1280;49.760;9.664;2022-07-23T13:34:47;28.20;59.70
2539;DHT22;1280;49.760;9.664;2022-07-23T13:37:17;28.20;59.60
2539;DHT22;1280;49.760;9.664;2022-07-23T13:39:45;28.20;59.50
2539;DHT22;1280;49.760;9.664;2022-07-23T13:42:13;28.30;59.20
2539;DHT22;1280;49.760;9.664;2022-07-23T13:44:42;28.30;58.90
2539;DHT22;1280;49.760;9.664;2022-07-23T13:47:10;28.30;58.70
2539;DHT22;1280;49.760;9.664;2022-07-23T13:49:38;28.30;58.60
2539;DHT22;1280;49.760;9.664;2022-07-23T13:52:07;28.20;58.60
2539;DHT22;1280;49.760;9.664;2022-07-23T13:54:35;28.20;58.40
2539;DHT22;1280;49.760;9.664;2022-07-23T13:57:03;28.10;58.10
2539;DHT22;1280;49.760;9.664;2022-07-23T13:59:31;28.10;58.00
2539;DHT22;1280;49.760;9.664;2022-07-23T14:02:01;28.00;58.10
2539;DHT22;1280;49.760;9.664;2022-07-23T14:04:49;28.00;58.10
2539;DHT22;1280;49.760;9.664;2022-07-23T14:07:18;28.00;58.00
2539;DHT22;1280;49.760;9.664;2022-07-23T14:09:48;28.00;58.10
2539;DHT22;1280;49.760;9.664;2022-07-23T14:12:18;28.00;58.20
2539;DHT22;1280;49.760;9.664;2022-07-23T14:14:49;28.00;58.10
2539;DHT22;1280;49.760;9.664;2022-07-23T14:17:19;28.10;58.00
2539;DHT22;1280;49.760;9.664;2022-07-23T14:19:47;28.10;57.90
2539;DHT22;1280;49.760;9.664;2022-07-23T14:22:17;28.10;57.80
2539;DHT22;1280;49.760;9.664;2022-07-23T14:24:47;28.10;57.70
2539;DHT22;1280;49.760;9.664;2022-07-23T14:27:16;28.10;57.50
2539;DHT22;1280;49.760;9.664;2022-07-23T14:29:47;28.20;57.70
2539;DHT22;1280;49.760;9.664;2022-07-23T14:32:14;28.30;57.60
2539;DHT22;1280;49.760;9.664;2022-07-23T14:34:44;28.40;57.40
2539;DHT22;1280;49.760;9.664;2022-07-23T14:37:15;28.40;57.10
2539;DHT22;1280;49.760;9.664;2022-07-23T14:39:44;28.50;57.00
2539;DHT22;1280;49.760;9.664;2022-07-23T14:42:16;28.50;56.80
2539;DHT22;1280;49.760;9.664;2022-07-23T14:44:44;28.50;56.90
2539;DHT22;1280;49.760;9.664;2022-07-23T14:47:12;28.60;56.60
2539;DHT22;1280;49.760;9.664;2022-07-23T14:49:48;28.60;56.50
2539;DHT22;1280;49.760;9.664;2022-07-23T14:52:16;28.60;56.50
2539;DHT22;1280;49.760;9.664;2022-07-23T14:54:44;28.70;56.40
2539;DHT22;1280;49.760;9.664;2022-07-23T14:57:16;28.70;56.20
2539;DHT22;1280;49.760;9.664;2022-07-23T14:59:50;28.70;55.90
2539;DHT22;1280;49.760;9.664;2022-07-23T15:02:20;28.70;55.60
2539;DHT22;1280;49.760;9.664;2022-07-23T15:04:50;28.60;55.60
2539;DHT22;1280;49.760;9.664;2022-07-23T15:07:18;28.40;55.30
2539;DHT22;1280;49.760;9.664;2022-07-23T15:09:46;28.40;55.50
2539;DHT22;1280;49.760;9.664;2022-07-23T15:12:14;28.30;55.70
2539;DHT22;1280;49.760;9.664;2022-07-23T15:14:42;28.30;55.60
2539;DHT22;1280;49.760;9.664;2022-07-23T15:17:10;28.20;55.40
2539;DHT22;1280;49.760;9.664;2022-07-23T15:19:40;28.10;55.60
2539;DHT22;1280;49.760;9.664;2022-07-23T15:22:09;28.00;55.30
2539;DHT22;1280;49.760;9.664;2022-07-23T15:24:37;27.90;55.40
2539;DHT22;1280;49.760;9.664;2022-07-23T15:27:05;28.00;55.60
2539;DHT22;1280;49.760;9.664;2022-07-23T15:29:33;28.00;55.50
2539;DHT22;1280;49.760;9.664;2022-07-23T15:32:01;28.10;55.40
2539;DHT22;1280;49.760;9.664;2022-07-23T15:34:30;28.10;54.90
2539;DHT22;1280;49.760;9.664;2022-07-23T15:36:59;28.00;55.00
2539;DHT22;1280;49.760;9.664;2022-07-23T15:39:38;28.00;55.10
2539;DHT22;1280;49.760;9.664;2022-07-23T15:42:07;28.00;54.90
2539;DHT22;1280;49.760;9.664;2022-07-23T15:44:40;28.00;54.90
2539;DHT22;1280;49.760;9.664;2022-07-23T15:47:12;28.00;54.90
2539;DHT22;1280;49.760;9.664;2022-07-23T15:49:40;28.00;54.80
2539;DHT22;1280;49.760;9.664;2022-07-23T15:52:08;27.90;54.80
2539;DHT22;1280;49.760;9.664;2022-07-23T15:54:38;27.90;54.90
2539;DHT22;1280;49.760;9.664;2022-07-23T15:57:07;28.00;55.00
2539;DHT22;1280;49.760;9.664;2022-07-23T15:59:35;28.00;55.00
2539;DHT22;1280;49.760;9.664;2022-07-23T16:02:04;28.00;54.90
2539;DHT22;1280;49.760;9.664;2022-07-23T16:04:32;28.00;54.80
2539;DHT22;1280;49.760;9.664;2022-07-23T16:07:01;28.00;54.70
2539;DHT22;1280;49.760;9.664;2022-07-23T16:09:30;28.00;54.50
2539;DHT22;1280;49.760;9.664;2022-07-23T16:12:00;27.90;54.50
2539;DHT22;1280;49.760;9.664;2022-07-23T16:14:28;27.90;54.50
2539;DHT22;1280;49.760;9.664;2022-07-23T16:16:56;27.90;54.50
2539;DHT22;1280;49.760;9.664;2022-07-23T16:19:24;27.90;54.60
2539;DHT22;1280;49.760;9.664;2022-07-23T16:21:52;27.90;54.60
2539;DHT22;1280;49.760;9.664;2022-07-23T16:24:20;28.00;54.70
2539;DHT22;1280;49.760;9.664;2022-07-23T16:26:48;28.00;54.70
2539;DHT22;1280;49.760;9.664;2022-07-23T16:29:17;28.10;54.70
2539;DHT22;1280;49.760;9.664;2022-07-23T16:31:47;28.10;54.50
2539;DHT22;1280;49.760;9.664;2022-07-23T16:34:15;28.20;54.30
2539;DHT22;1280;49.760;9.664;2022-07-23T16:36:44;28.20;54.00
2539;DHT22;1280;49.760;9.664;2022-07-23T16:39:12;28.20;53.70